createdAt,value
2022-07-26T00:01:21.813Z,1.90
2022-07-26T00:03:50.996Z,1.20
2022-07-26T00:06:18.124Z,1.20
2022-07-26T00:08:47.282Z,1.38
2022-07-26T00:11:14.298Z,1.40
2022-07-26T00:13:41.103Z,1.35
2022-07-26T00:16:07.805Z,1.30
2022-07-26T00:18:34.498Z,1.00
2022-07-26T00:21:01.036Z,1.40
2022-07-26T00:23:27.839Z,1.30
2022-07-26T00:25:54.399Z,1.25
2022-07-26T00:28:21.050Z,1.17
2022-07-26T00:30:47.871Z,1.20
2022-07-26T00:33:14.513Z,1.05
2022-07-26T00:35:41.142Z,1.20
2022-07-26T00:38:07.919Z,1.20
2022-07-26T00:40:35.565Z,1.48
2022-07-26T00:43:02.294Z,1.05
2022-07-26T00:45:28.823Z,1.10
2022-07-26T00:47:55.496Z,1.58
2022-07-26T00:50:22.112Z,1.35
2022-07-26T00:52:50.403Z,1.20
2022-07-26T00:55:18.017Z,1.35
2022-07-26T00:57:45.636Z,1.63
2022-07-26T01:00:18.376Z,1.33
2022-07-26T01:02:45.724Z,1.20
2022-07-26T01:05:12.442Z,1.40
2022-07-26T01:07:39.554Z,1.23
2022-07-26T01:10:10.666Z,1.60
2022-07-26T01:12:37.176Z,0.95
2022-07-26T01:15:04.081Z,1.58
2022-07-26T01:17:30.601Z,1.42
2022-07-26T01:19:57.140Z,1.33
2022-07-26T01:22:24.124Z,1.42
2022-07-26T01:24:50.709Z,1.15
2022-07-26T01:27:17.529Z,1.20
2022-07-26T01:29:44.090Z,1.52
2022-07-26T01:32:10.613Z,1.35
2022-07-26T01:34:37.130Z,1.40
2022-07-26T01:37:04.080Z,1.45
2022-07-26T01:39:30.609Z,1.52
2022-07-26T01:41:57.346Z,1.38
2022-07-26T01:44:24.179Z,1.50
2022-07-26T01:46:50.694Z,1.33
2022-07-26T01:49:17.442Z,1.25
2022-07-26T01:51:44.316Z,1.30
2022-07-26T01:54:11.550Z,1.60
2022-07-26T01:56:38.458Z,1.08
2022-07-26T01:59:05.146Z,1.48
2022-07-26T02:01:39.209Z,1.48
2022-07-26T02:04:08.603Z,1.23
2022-07-26T02:06:35.544Z,1.30
2022-07-26T02:09:04.095Z,1.50
2022-07-26T02:11:33.023Z,1.38
2022-07-26T02:13:59.640Z,1.38
2022-07-26T02:16:26.844Z,1.45
2022-07-26T02:18:53.656Z,1.33
2022-07-26T02:21:20.135Z,1.20
2022-07-26T02:23:46.685Z,1.50
2022-07-26T02:26:13.237Z,1.00
2022-07-26T02:28:39.847Z,1.58
2022-07-26T02:31:06.440Z,1.60
2022-07-26T02:33:33.109Z,1.45
2022-07-26T02:35:59.641Z,1.25
2022-07-26T02:38:26.181Z,1.40
2022-07-26T02:40:52.941Z,1.42
2022-07-26T02:43:19.868Z,1.42
2022-07-26T02:46:01.511Z,1.05
2022-07-26T02:48:30.308Z,1.23
2022-07-26T02:50:56.935Z,1.08
2022-07-26T02:53:23.497Z,1.05
2022-07-26T02:55:50.010Z,1.17
2022-07-26T02:58:16.719Z,1.05
2022-07-26T03:00:43.302Z,1.10
2022-07-26T03:03:13.929Z,0.95
2022-07-26T03:05:40.814Z,0.93
2022-07-26T03:08:07.666Z,0.85
2022-07-26T03:10:34.165Z,0.90
2022-07-26T03:13:00.781Z,0.68
2022-07-26T03:15:27.505Z,1.15
2022-07-26T03:17:55.223Z,0.90
2022-07-26T03:20:21.773Z,0.90
2022-07-26T03:22:48.536Z,1.30
2022-07-26T03:25:15.076Z,0.80
2022-07-26T03:27:41.706Z,1.10
2022-07-26T03:30:08.972Z,1.08
2022-07-26T03:32:35.665Z,0.95
2022-07-26T03:35:02.145Z,0.95
2022-07-26T03:37:44.735Z,1.00
2022-07-26T03:40:14.618Z,0.95
2022-07-26T03:42:41.194Z,0.90
2022-07-26T03:45:09.342Z,1.17
2022-07-26T03:47:37.188Z,0.93
2022-07-26T03:50:05.260Z,0.95
2022-07-26T03:52:31.953Z,0.80
2022-07-26T03:54:58.836Z,0.85
2022-07-26T03:57:28.407Z,0.98
2022-07-26T03:59:55.109Z,0.90
2022-07-26T04:02:21.821Z,1.00
2022-07-26T04:04:48.441Z,0.88
2022-07-26T04:07:16.001Z,0.90
2022-07-26T04:09:42.959Z,1.02
2022-07-26T04:12:09.683Z,1.00
2022-07-26T04:14:36.242Z,1.23
2022-07-26T04:17:02.797Z,0.80
2022-07-26T04:19:29.613Z,1.10
2022-07-26T04:21:56.182Z,0.90
2022-07-26T04:24:25.299Z,0.90
2022-07-26T04:26:52.457Z,1.10
2022-07-26T04:29:18.961Z,1.10
2022-07-26T04:31:45.584Z,1.15
2022-07-26T04:34:12.157Z,0.90
2022-07-26T04:36:39.140Z,1.02
2022-07-26T04:39:05.711Z,1.00
2022-07-26T04:41:32.269Z,0.75
2022-07-26T04:43:58.882Z,1.13
2022-07-26T04:46:25.679Z,0.80
2022-07-26T04:48:52.357Z,1.23
2022-07-26T04:51:18.923Z,0.90
2022-07-26T04:53:45.428Z,0.88
2022-07-26T04:56:12.166Z,0.93
2022-07-26T04:58:38.667Z,0.88
2022-07-26T05:01:12.433Z,0.98
2022-07-26T05:03:39.840Z,0.80
2022-07-26T05:06:06.894Z,0.70
2022-07-26T05:08:33.445Z,1.30
2022-07-26T05:11:00.012Z,1.02
2022-07-26T05:13:30.216Z,0.88
2022-07-26T05:15:58.366Z,1.08
2022-07-26T05:18:25.341Z,0.90
2022-07-26T05:20:52.341Z,1.30
2022-07-26T05:23:20.459Z,1.05
2022-07-26T05:25:47.382Z,1.23
2022-07-26T05:28:13.906Z,1.35
2022-07-26T05:30:40.450Z,1.13
2022-07-26T05:33:07.003Z,1.00
2022-07-26T05:35:33.520Z,1.20
2022-07-26T05:38:00.095Z,1.52
2022-07-26T05:40:26.606Z,1.33
2022-07-26T05:42:53.168Z,1.13
2022-07-26T05:45:19.969Z,1.30
2022-07-26T05:47:49.975Z,1.77
2022-07-26T05:50:16.779Z,1.45
2022-07-26T05:52:43.492Z,1.45
2022-07-26T05:55:10.165Z,1.63
2022-07-26T05:57:36.767Z,1.15
2022-07-26T06:00:04.689Z,1.55
2022-07-26T06:02:38.569Z,2.13
2022-07-26T06:05:05.820Z,1.80
2022-07-26T06:07:32.525Z,1.60
2022-07-26T06:09:59.970Z,1.30
2022-07-26T06:12:26.689Z,2.03
2022-07-26T06:14:53.154Z,1.73
2022-07-26T06:17:19.735Z,1.70
2022-07-26T06:19:47.872Z,1.85
2022-07-26T06:22:15.115Z,1.80
2022-07-26T06:24:41.637Z,2.03
2022-07-26T06:27:08.411Z,1.70
2022-07-26T06:29:34.929Z,2.08
2022-07-26T06:32:01.639Z,1.75
2022-07-26T06:34:28.714Z,1.42
2022-07-26T06:36:55.349Z,2.05
2022-07-26T06:39:21.854Z,1.75
2022-07-26T06:41:48.503Z,2.00
2022-07-26T06:44:22.621Z,1.63
2022-07-26T06:46:49.773Z,1.70
2022-07-26T06:49:20.549Z,1.88
2022-07-26T06:51:48.881Z,1.98
2022-07-26T06:54:15.723Z,1.67
2022-07-26T06:56:42.326Z,1.90
2022-07-26T06:59:09.565Z,1.90
2022-07-26T07:01:57.746Z,1.60
2022-07-26T07:04:22.897Z,1.98
2022-07-26T07:06:49.593Z,1.80
2022-07-26T07:09:16.188Z,2.13
2022-07-26T07:11:44.378Z,1.73
2022-07-26T07:14:11.956Z,1.80
2022-07-26T07:16:38.826Z,1.73
2022-07-26T07:19:05.484Z,2.00
2022-07-26T07:21:33.746Z,1.75
2022-07-26T07:24:00.785Z,1.77
2022-07-26T07:26:29.313Z,1.88
2022-07-26T07:28:55.958Z,2.17
2022-07-26T07:31:28.732Z,2.05
2022-07-26T07:33:57.459Z,2.10
2022-07-26T07:36:24.699Z,2.22
2022-07-26T07:38:51.381Z,2.45
2022-07-26T07:41:18.945Z,2.00
2022-07-26T07:43:45.563Z,2.20
2022-07-26T07:46:12.839Z,2.05
2022-07-26T07:48:47.417Z,2.22
2022-07-26T07:51:14.683Z,2.45
2022-07-26T07:53:41.529Z,2.10
2022-07-26T07:56:08.209Z,1.73
2022-07-26T07:58:34.824Z,1.55
2022-07-26T08:01:01.523Z,1.98
2022-07-26T08:03:38.955Z,1.85
2022-07-26T08:06:08.337Z,1.85
2022-07-26T08:08:37.360Z,2.03
2022-07-26T08:11:05.230Z,1.90
2022-07-26T08:13:34.671Z,1.70
2022-07-26T08:16:09.573Z,1.92
2022-07-26T08:18:36.461Z,1.58
2022-07-26T08:21:08.536Z,1.75
2022-07-26T08:23:35.255Z,1.35
2022-07-26T08:26:06.277Z,1.80
2022-07-26T08:28:58.389Z,1.70
2022-07-26T08:31:21.147Z,1.88
2022-07-26T08:33:48.651Z,1.90
2022-07-26T08:36:17.122Z,1.70
2022-07-26T08:38:44.621Z,1.75
2022-07-26T08:41:14.208Z,2.10
2022-07-26T08:43:48.887Z,1.90
2022-07-26T08:46:24.677Z,1.52
2022-07-26T08:48:52.741Z,1.65
2022-07-26T08:51:22.150Z,1.63
2022-07-26T08:53:49.779Z,1.67
2022-07-26T08:56:16.278Z,1.80
2022-07-26T08:58:43.911Z,1.70
2022-07-26T09:01:12.950Z,1.98
2022-07-26T09:03:40.604Z,1.80
2022-07-26T09:06:21.750Z,1.80
2022-07-26T09:08:51.298Z,1.55
2022-07-26T09:11:24.013Z,1.70
2022-07-26T09:13:59.082Z,1.77
2022-07-26T09:16:26.755Z,1.30
2022-07-26T09:18:53.895Z,1.63
2022-07-26T09:21:27.466Z,1.30
2022-07-26T09:23:55.129Z,1.70
2022-07-26T09:26:23.682Z,1.10
2022-07-26T09:29:03.583Z,0.70
2022-07-26T09:31:30.323Z,1.00
2022-07-26T09:33:58.929Z,0.90
2022-07-26T09:36:27.614Z,0.60
2022-07-26T09:38:59.116Z,0.90
2022-07-26T09:41:30.219Z,0.93
2022-07-26T09:44:00.456Z,0.82
2022-07-26T09:46:29.743Z,1.13
2022-07-26T09:49:13.448Z,1.38
2022-07-26T09:51:42.232Z,1.50
2022-07-26T09:54:11.046Z,1.65
2022-07-26T09:56:49.895Z,2.00
2022-07-26T09:59:18.942Z,1.88
2022-07-26T10:01:45.825Z,1.92
2022-07-26T10:04:13.991Z,1.67
2022-07-26T10:06:42.285Z,1.92
2022-07-26T10:09:09.737Z,2.08
2022-07-26T10:12:06.916Z,1.75
2022-07-26T10:14:33.476Z,2.10
2022-07-26T10:17:01.142Z,1.88
2022-07-26T10:19:45.256Z,1.90
2022-07-26T10:22:31.155Z,1.77
2022-07-26T10:25:20.009Z,2.10
2022-07-26T10:27:55.078Z,2.30
2022-07-26T10:30:23.246Z,2.42
2022-07-26T10:33:13.495Z,2.10
2022-07-26T10:35:44.826Z,2.17
2022-07-26T10:38:31.648Z,1.83
2022-07-26T10:41:09.040Z,2.30
2022-07-26T10:43:41.050Z,2.47
2022-07-26T10:46:20.551Z,1.92
2022-07-26T10:49:03.626Z,2.10
2022-07-26T10:51:39.426Z,2.58
2022-07-26T10:54:09.415Z,2.25
2022-07-26T10:56:36.629Z,2.33
2022-07-26T10:59:05.414Z,1.85
2022-07-26T11:01:40.838Z,1.80
2022-07-26T11:04:27.750Z,1.75
2022-07-26T11:07:00.413Z,1.60
2022-07-26T11:09:34.514Z,1.60
2022-07-26T11:12:20.070Z,1.23
2022-07-26T11:14:48.542Z,1.10
2022-07-26T11:17:25.154Z,1.08
2022-07-26T11:19:52.160Z,0.90
2022-07-26T11:22:18.924Z,0.70
2022-07-26T11:24:45.652Z,0.80
2022-07-26T11:27:12.514Z,1.10
2022-07-26T11:29:40.308Z,0.70
2022-07-26T11:32:17.862Z,0.77
2022-07-26T11:34:45.846Z,0.70
2022-07-26T11:37:13.466Z,0.80
2022-07-26T11:39:40.073Z,1.00
2022-07-26T11:42:13.239Z,0.75
2022-07-26T11:44:44.247Z,0.75
2022-07-26T11:47:20.015Z,0.70
2022-07-26T11:50:00.893Z,0.88
2022-07-26T11:52:33.676Z,0.90
2022-07-26T11:55:00.263Z,0.45
2022-07-26T11:57:32.174Z,0.88
2022-07-26T12:00:00.409Z,0.70
2022-07-26T12:02:28.533Z,0.60
2022-07-26T12:05:14.186Z,0.80
2022-07-26T12:07:56.080Z,0.50
2022-07-26T12:10:23.158Z,0.80
2022-07-26T12:12:50.210Z,0.75
2022-07-26T12:15:16.854Z,0.77
2022-07-26T12:17:59.680Z,0.60
2022-07-26T12:20:28.109Z,0.60
2022-07-26T12:23:04.982Z,0.52
2022-07-26T12:25:32.020Z,0.65
2022-07-26T12:27:58.561Z,0.63
2022-07-26T12:30:30.748Z,0.40
2022-07-26T12:33:02.140Z,0.30
2022-07-26T12:35:35.788Z,0.32
2022-07-26T12:38:03.466Z,0.38
2022-07-26T12:40:39.540Z,0.40
2022-07-26T12:43:06.076Z,0.20
2022-07-26T12:45:36.238Z,0.20
2022-07-26T12:48:07.054Z,0.30
2022-07-26T12:50:33.854Z,0.20
2022-07-26T12:53:08.772Z,0.28
2022-07-26T12:55:36.128Z,0.30
2022-07-26T12:58:02.881Z,0.32
2022-07-26T13:00:29.816Z,0.30
2022-07-26T13:02:57.642Z,0.22
2022-07-26T13:05:24.965Z,0.40
2022-07-26T13:07:52.139Z,0.40
2022-07-26T13:10:35.592Z,0.50
2022-07-26T13:13:03.713Z,0.20
2022-07-26T13:15:36.068Z,0.63
2022-07-26T13:18:08.768Z,0.60
2022-07-26T13:20:39.328Z,0.40
2022-07-26T13:23:11.588Z,0.50
2022-07-26T13:25:40.374Z,0.38
2022-07-26T13:28:08.150Z,0.57
2022-07-26T13:30:37.473Z,0.45
2022-07-26T13:33:04.729Z,0.40
2022-07-26T13:35:31.227Z,0.50
2022-07-26T13:37:57.816Z,0.50
2022-07-26T13:40:30.683Z,0.40
2022-07-26T13:42:57.973Z,0.52
2022-07-26T13:45:24.485Z,0.55
2022-07-26T13:47:55.921Z,0.40
2022-07-26T13:50:22.748Z,0.57
2022-07-26T13:52:49.334Z,0.47
2022-07-26T13:55:16.166Z,0.57
2022-07-26T13:57:55.915Z,0.52
2022-07-26T14:00:23.149Z,0.40
2022-07-26T14:02:49.931Z,0.40
2022-07-26T14:05:16.638Z,0.50
2022-07-26T14:07:43.570Z,0.30
2022-07-26T14:10:10.494Z,0.40
2022-07-26T14:12:38.154Z,0.40
2022-07-26T14:15:11.238Z,0.47
2022-07-26T14:17:39.739Z,0.38
2022-07-26T14:20:07.058Z,0.40
2022-07-26T14:22:33.596Z,0.50
2022-07-26T14:25:00.299Z,0.40
2022-07-26T14:27:26.968Z,0.70
2022-07-26T14:29:53.586Z,0.40
2022-07-26T14:32:22.105Z,0.40
2022-07-26T14:34:49.909Z,0.30
2022-07-26T14:37:44.474Z,0.50
2022-07-26T14:40:05.771Z,0.28
2022-07-26T14:42:32.512Z,0.40
2022-07-26T14:44:59.201Z,0.47
2022-07-26T14:47:25.803Z,0.45
2022-07-26T14:49:52.441Z,0.35
2022-07-26T14:52:19.171Z,0.70
2022-07-26T14:54:45.729Z,0.38
2022-07-26T14:57:12.292Z,0.32
2022-07-26T14:59:38.826Z,0.40
2022-07-26T15:02:05.970Z,0.50
2022-07-26T15:04:33.310Z,0.40
2022-07-26T15:07:00.129Z,0.40
2022-07-26T15:09:26.621Z,0.40
2022-07-26T15:11:53.450Z,0.40
2022-07-26T15:14:19.991Z,0.70
2022-07-26T15:16:46.651Z,0.20
2022-07-26T15:19:13.502Z,0.55
2022-07-26T15:21:40.174Z,0.32
2022-07-26T15:24:07.550Z,0.28
2022-07-26T15:26:35.079Z,0.40
2022-07-26T15:29:01.617Z,0.20
2022-07-26T15:31:36.620Z,0.40
2022-07-26T15:34:07.628Z,0.30
2022-07-26T15:36:34.644Z,0.52
2022-07-26T15:39:14.665Z,0.60
2022-07-26T15:41:43.542Z,0.30
2022-07-26T15:44:11.579Z,0.40
2022-07-26T15:46:39.842Z,0.50
2022-07-26T15:49:07.611Z,0.45
2022-07-26T15:51:34.527Z,0.40
2022-07-26T15:54:03.031Z,0.50
2022-07-26T15:56:29.735Z,0.60
2022-07-26T15:58:56.440Z,0.45
2022-07-26T16:01:23.081Z,0.60
2022-07-26T16:03:50.229Z,0.52
2022-07-26T16:06:17.418Z,0.57
2022-07-26T16:09:13.535Z,0.40
2022-07-26T16:11:31.365Z,0.45
2022-07-26T16:14:01.407Z,0.45
2022-07-26T16:16:30.042Z,0.43
2022-07-26T16:18:56.851Z,0.50
2022-07-26T16:21:24.052Z,0.52
2022-07-26T16:23:51.128Z,0.77
2022-07-26T16:26:18.326Z,0.43
2022-07-26T16:28:45.236Z,0.50
2022-07-26T16:31:12.210Z,0.60
2022-07-26T16:33:41.970Z,0.30
2022-07-26T16:36:14.048Z,0.30
2022-07-26T16:38:40.586Z,0.40
2022-07-26T16:41:07.260Z,0.50
2022-07-26T16:43:34.590Z,0.52
2022-07-26T16:46:01.831Z,0.50
2022-07-26T16:48:28.497Z,0.60
2022-07-26T16:50:55.096Z,0.65
2022-07-26T16:53:21.597Z,0.55
2022-07-26T16:55:51.286Z,0.47
2022-07-26T16:58:18.634Z,0.45
2022-07-26T17:00:46.126Z,0.63
2022-07-26T17:03:15.725Z,0.50
2022-07-26T17:05:43.746Z,0.80
2022-07-26T17:08:10.493Z,0.73
2022-07-26T17:10:37.132Z,0.77
2022-07-26T17:13:04.093Z,0.55
2022-07-26T17:15:30.571Z,0.77
2022-07-26T17:17:57.178Z,0.50
2022-07-26T17:20:23.722Z,0.63
2022-07-26T17:22:50.297Z,0.70
2022-07-26T17:25:16.995Z,1.00
2022-07-26T17:27:43.880Z,0.73
2022-07-26T17:30:11.384Z,0.68
2022-07-26T17:32:38.169Z,0.90
2022-07-26T17:35:06.425Z,0.85
2022-07-26T17:37:35.127Z,0.90
2022-07-26T17:40:04.973Z,0.80
2022-07-26T17:42:35.090Z,0.85
2022-07-26T17:45:01.812Z,0.88
2022-07-26T17:47:30.483Z,0.73
2022-07-26T17:52:52.661Z,0.93
2022-07-26T17:55:20.399Z,0.75
2022-07-26T17:57:48.308Z,1.13
2022-07-26T18:00:18.954Z,0.70
2022-07-26T18:02:45.871Z,0.85
2022-07-26T18:05:12.593Z,0.88
2022-07-26T18:07:39.814Z,0.75
2022-07-26T18:10:07.660Z,1.00
2022-07-26T18:12:34.279Z,0.82
2022-07-26T18:15:00.808Z,0.75
2022-07-26T18:17:27.466Z,1.02
2022-07-26T18:19:54.020Z,0.73
2022-07-26T18:22:20.643Z,1.00
2022-07-26T18:24:47.138Z,1.08
2022-07-26T18:27:13.675Z,0.77
2022-07-26T18:29:40.234Z,0.80
2022-07-26T18:32:06.798Z,0.80
2022-07-26T18:34:34.077Z,1.10
2022-07-26T18:37:00.757Z,1.10
2022-07-26T18:39:32.572Z,0.82
2022-07-26T18:42:00.208Z,0.70
2022-07-26T18:44:26.734Z,0.80
2022-07-26T18:46:53.426Z,0.82
2022-07-26T18:49:21.175Z,0.90
2022-07-26T18:51:49.021Z,1.00
2022-07-26T18:54:16.823Z,1.00
2022-07-26T18:56:43.441Z,0.77
2022-07-26T18:59:10.337Z,0.93
2022-07-26T19:01:37.483Z,0.75
2022-07-26T19:04:07.072Z,0.60
2022-07-26T19:06:34.916Z,0.65
2022-07-26T19:09:01.562Z,0.73
2022-07-26T19:11:29.609Z,0.77
2022-07-26T19:13:56.196Z,0.65
2022-07-26T19:16:22.906Z,0.77
2022-07-26T19:18:52.718Z,1.10
2022-07-26T19:21:22.042Z,0.90
2022-07-26T19:23:48.619Z,0.68
2022-07-26T19:26:15.087Z,0.93
2022-07-26T19:28:41.703Z,0.75
2022-07-26T19:31:08.292Z,0.82
2022-07-26T19:33:34.844Z,0.80
2022-07-26T19:36:01.510Z,1.00
2022-07-26T19:38:28.105Z,0.77
2022-07-26T19:40:55.218Z,0.80
2022-07-26T19:43:22.634Z,0.75
2022-07-26T19:45:49.492Z,0.85
2022-07-26T19:48:16.087Z,1.10
2022-07-26T19:50:42.587Z,0.90
2022-07-26T19:53:09.076Z,0.82
2022-07-26T19:55:38.486Z,0.80
2022-07-26T19:58:05.193Z,0.65
2022-07-26T20:00:31.677Z,0.73
2022-07-26T20:02:58.348Z,0.70
2022-07-26T20:05:24.925Z,0.90
2022-07-26T20:07:52.953Z,0.75
2022-07-26T20:10:19.701Z,0.70
2022-07-26T20:12:46.231Z,0.80
2022-07-26T20:15:14.355Z,0.90
2022-07-26T20:17:41.501Z,0.57
2022-07-26T20:20:09.704Z,1.25
2022-07-26T20:22:36.694Z,0.80
2022-07-26T20:25:03.510Z,0.57
2022-07-26T20:27:30.196Z,0.60
2022-07-26T20:30:00.874Z,0.90
2022-07-26T20:32:27.931Z,0.90
2022-07-26T20:34:54.692Z,0.88
2022-07-26T20:37:21.327Z,0.90
2022-07-26T20:39:47.853Z,0.60
2022-07-26T20:42:21.227Z,0.70
2022-07-26T20:44:48.244Z,1.02
2022-07-26T20:47:15.229Z,0.75
2022-07-26T20:49:41.761Z,0.77
2022-07-26T20:52:08.434Z,0.50
2022-07-26T20:54:35.129Z,0.60
2022-07-26T20:57:04.100Z,0.70
2022-07-26T20:59:32.308Z,0.68
2022-07-26T21:01:59.057Z,0.50
2022-07-26T21:04:25.624Z,0.57
2022-07-26T21:06:52.253Z,0.50
2022-07-26T21:09:19.843Z,0.63
2022-07-26T21:11:46.758Z,0.60
2022-07-26T21:14:13.397Z,0.68
2022-07-26T21:16:40.143Z,0.60
2022-07-26T21:19:06.938Z,0.80
2022-07-26T21:21:34.245Z,0.80
2022-07-26T21:24:00.904Z,0.70
2022-07-26T21:26:27.481Z,0.80
2022-07-26T21:28:54.091Z,0.80
2022-07-26T21:31:21.128Z,0.75
2022-07-26T21:33:47.684Z,0.75
2022-07-26T21:36:14.358Z,0.68
2022-07-26T21:38:41.915Z,0.68
2022-07-26T21:41:08.509Z,0.75
2022-07-26T21:43:35.748Z,0.98
2022-07-26T21:46:02.984Z,0.65
2022-07-26T21:48:30.197Z,0.60
2022-07-26T21:50:56.809Z,0.60
2022-07-26T21:53:23.321Z,0.93
2022-07-26T21:55:49.800Z,0.60
2022-07-26T21:58:17.097Z,0.65
2022-07-26T22:00:43.894Z,0.77
2022-07-26T22:03:11.744Z,0.80
2022-07-26T22:05:38.270Z,1.00
2022-07-26T22:08:06.868Z,0.70
2022-07-26T22:10:35.186Z,0.55
2022-07-26T22:13:10.672Z,0.68
2022-07-26T22:15:37.327Z,0.90
2022-07-26T22:18:04.102Z,0.63
2022-07-26T22:20:32.367Z,0.75
2022-07-26T22:23:03.402Z,0.60
2022-07-26T22:25:31.849Z,0.90
2022-07-26T22:27:59.604Z,0.57
2022-07-26T22:30:28.443Z,0.85
2022-07-26T22:32:56.553Z,0.75
2022-07-26T22:35:24.929Z,0.60
2022-07-26T22:37:53.540Z,0.65
2022-07-26T22:40:21.707Z,0.60
2022-07-26T22:42:48.517Z,1.00
2022-07-26T22:45:15.868Z,0.75
2022-07-26T22:47:46.951Z,0.70
2022-07-26T22:50:23.409Z,0.73
2022-07-26T22:52:52.199Z,0.55
2022-07-26T22:55:18.887Z,0.60
2022-07-26T22:57:45.679Z,0.60
2022-07-26T23:00:14.949Z,0.55
2022-07-26T23:02:41.955Z,0.80
2022-07-26T23:05:09.324Z,0.77
2022-07-26T23:07:37.080Z,0.82
2022-07-26T23:10:05.974Z,0.70
2022-07-26T23:12:32.556Z,0.68
2022-07-26T23:14:59.114Z,0.65
2022-07-26T23:17:25.640Z,0.80
2022-07-26T23:19:52.176Z,0.60
2022-07-26T23:22:18.653Z,0.52
2022-07-26T23:24:45.137Z,0.57
2022-07-26T23:27:14.339Z,0.50
2022-07-26T23:29:44.652Z,0.82
2022-07-26T23:32:12.601Z,0.70
2022-07-26T23:34:39.673Z,0.77
2022-07-26T23:37:06.141Z,0.45
2022-07-26T23:39:32.734Z,0.95
2022-07-26T23:42:02.911Z,0.70
2022-07-26T23:44:30.603Z,0.95
2022-07-26T23:46:58.579Z,0.65
2022-07-26T23:49:25.453Z,0.80
2022-07-26T23:51:52.329Z,0.73
2022-07-26T23:54:19.054Z,0.88
2022-07-26T23:56:45.806Z,0.63
2022-07-26T23:59:13.704Z,0.93
